Time;durP1;ratioP1;P1;durP2;ratioP2;P2;SDS_P1;SDS_P2;PMS_P1;PMS_P2;Temp;Humidity;BMP_temperature;BMP_pressure;BME280_temperature;BME280_humidity;BME280_pressure;Samples;Min_cycle;Max_cycle;Signal;HPM_P1;HPM_P2
2023/04/21 00:01:12;;;;;;;7.20;1.75;;;;;;;6.87;57.79;98202.72;4931744;28;20044;-58
2023/04/21 00:03:42;;;;;;;5.22;1.67;;;;;;;6.72;59.10;98216.25;4931155;28;20431;-58
2023/04/21 00:06:14;;;;;;;3.70;1.45;;;;;;;6.70;59.48;98212.84;4931640;28;20475;-58
2023/04/21 00:08:44;;;;;;;7.57;1.60;;;;;;;6.79;60.03;98222.91;4932226;28;20475;-58
2023/04/21 00:11:15;;;;;;;5.15;1.40;;;;;;;6.79;59.19;98222.91;4931335;28;20067;-56
2023/04/21 00:13:46;;;;;;;2.83;1.13;;;;;;;6.48;58.41;98223.91;4930622;28;20509;-58
2023/04/21 00:16:18;;;;;;;7.57;1.70;;;;;;;6.27;59.51;98240.19;4930029;28;20052;-59
2023/04/21 00:18:49;;;;;;;3.88;1.38;;;;;;;6.23;60.84;98243.75;4920237;28;20087;-58
2023/04/21 00:21:19;;;;;;;7.25;1.52;;;;;;;6.57;61.76;98237.50;4919879;28;20573;-59
2023/04/21 00:23:50;;;;;;;7.40;1.40;;;;;;;6.89;58.79;98255.47;4892847;28;20091;-58
2023/04/21 00:26:20;;;;;;;4.53;1.40;;;;;;;6.91;57.44;98227.69;4892585;28;20044;-56
2023/04/21 00:28:51;;;;;;;6.45;1.65;;;;;;;6.66;60.11;98237.19;4892673;28;20083;-56
2023/04/21 00:31:23;;;;;;;8.90;1.40;;;;;;;6.96;58.63;98244.84;4894882;28;20052;-58
2023/04/21 00:33:54;;;;;;;7.38;1.40;;;;;;;7.31;57.10;98226.31;4911556;28;20072;-59
2023/04/21 00:36:27;;;;;;;5.13;1.55;;;;;;;7.15;56.71;98230.34;4912303;28;20060;-59
2023/04/21 00:38:57;;;;;;;7.47;1.35;;;;;;;7.08;57.58;98208.06;4907079;28;20088;-57
2023/04/21 00:41:29;;;;;;;4.15;1.23;;;;;;;7.21;57.26;98222.31;4916678;28;20057;-58
2023/04/21 00:44:04;;;;;;;3.08;1.25;;;;;;;7.15;56.21;98229.50;4911772;28;20044;-58
2023/04/21 00:46:37;;;;;;;6.38;1.50;;;;;;;7.01;55.65;98227.38;4912266;28;20052;-58
2023/04/21 00:49:12;;;;;;;6.38;1.40;;;;;;;6.87;55.07;98231.28;4898628;28;20469;-58
2023/04/21 00:51:42;;;;;;;4.95;1.00;;;;;;;6.98;54.72;98237.88;4905894;28;20113;-59
2023/04/21 00:54:14;;;;;;;4.15;1.00;;;;;;;7.02;52.98;98240.31;4893620;28;20049;-58
2023/04/21 00:56:45;;;;;;;7.60;1.33;;;;;;;7.10;52.54;98237.44;4897041;28;20060;-58
2023/04/21 00:59:15;;;;;;;4.03;1.33;;;;;;;7.10;52.75;98234.84;4899601;28;20056;-58
2023/04/21 01:01:48;;;;;;;3.90;1.27;;;;;;;7.21;51.11;98230.09;4901281;28;20450;-60
2023/04/21 01:04:18;;;;;;;3.08;1.42;;;;;;;6.98;51.16;98227.47;4924616;28;20049;-58
2023/04/21 01:06:49;;;;;;;3.33;0.98;;;;;;;6.96;50.62;98239.66;4924186;28;20071;-60
2023/04/21 01:09:20;;;;;;;6.75;1.38;;;;;;;6.99;51.06;98239.53;4912335;28;20110;-60
2023/04/21 01:12:04;;;;;;;3.90;1.23;;;;;;;6.95;52.18;98217.22;4906676;28;20063;-59
2023/04/21 01:14:34;;;;;;;5.93;1.20;;;;;;;7.04;51.73;98242.84;4881270;28;20715;-59
2023/04/21 01:17:06;;;;;;;5.57;1.25;;;;;;;6.94;49.27;98236.25;4911437;28;20556;-59
2023/04/21 01:19:40;;;;;;;3.30;1.08;;;;;;;6.85;51.12;98258.19;4909805;28;20239;-59
2023/04/21 01:22:14;;;;;;;4.70;0.90;;;;;;;6.96;51.93;98234.47;4912623;28;20048;-58
2023/04/21 01:24:47;;;;;;;5.75;1.48;;;;;;;7.08;51.68;98236.63;4914911;28;20109;-57
2023/04/21 01:27:20;;;;;;;2.72;0.77;;;;;;;7.07;50.59;98232.38;4912435;28;20469;-58
2023/04/21 01:29:52;;;;;;;5.60;0.93;;;;;;;7.20;50.81;98243.16;4894771;28;20086;-57
2023/04/21 01:32:27;;;;;;;4.63;1.23;;;;;;;6.98;51.50;98243.06;4890917;28;20073;-58
2023/04/21 01:34:59;;;;;;;4.50;1.10;;;;;;;6.85;52.21;98212.31;4883343;28;20054;-59
2023/04/21 01:37:34;;;;;;;4.05;1.10;;;;;;;7.09;51.52;98235.75;4891555;28;20518;-58
2023/04/21 01:40:08;;;;;;;2.45;0.75;;;;;;;7.19;51.79;98244.94;4910017;28;20097;-58
2023/04/21 01:42:41;;;;;;;5.43;1.35;;;;;;;7.26;51.63;98254.19;4900203;28;20053;-59
2023/04/21 01:45:12;;;;;;;1.80;0.90;;;;;;;7.40;50.77;98247.66;4910566;28;20048;-56
2023/04/21 01:47:43;;;;;;;7.63;1.00;;;;;;;7.41;50.79;98257.13;4910092;28;20052;-58
2023/04/21 01:50:13;;;;;;;2.95;1.08;;;;;;;7.40;50.15;98240.72;4909834;28;20044;-59
2023/04/21 01:52:46;;;;;;;4.88;1.50;;;;;;;7.38;50.44;98252.91;4895207;28;20061;-59
2023/04/21 01:55:16;;;;;;;3.42;0.82;;;;;;;7.48;50.12;98249.06;4891597;28;20052;-58
2023/04/21 01:57:47;;;;;;;3.80;0.90;;;;;;;7.30;50.28;98228.94;4890853;28;20471;-58
2023/04/21 02:00:18;;;;;;;4.25;0.90;;;;;;;7.37;51.30;98229.59;4906234;28;20060;-58
2023/04/21 02:02:48;;;;;;;1.80;0.70;;;;;;;7.37;49.61;98245.19;4910624;28;20476;-59
2023/04/21 02:05:19;;;;;;;4.25;0.80;;;;;;;7.04;49.40;98243.72;4894429;28;20053;-58
2023/04/21 02:07:51;;;;;;;1.77;0.65;;;;;;;6.81;49.98;98238.44;4894843;28;20144;-57
2023/04/21 02:10:22;;;;;;;1.73;0.73;;;;;;;7.00;50.97;98264.63;4898532;28;20052;-56
2023/04/21 02:12:52;;;;;;;4.60;0.80;;;;;;;7.00;52.04;98262.03;4890863;28;20048;-58
2023/04/21 02:15:23;;;;;;;2.38;0.73;;;;;;;7.24;50.75;98261.19;4908095;28;20506;-58
2023/04/21 02:17:53;;;;;;;3.42;0.60;;;;;;;7.29;51.19;98264.47;4900619;28;20350;-58
2023/04/21 02:20:24;;;;;;;3.90;1.00;;;;;;;7.27;52.55;98257.66;4891041;28;20107;-58
2023/04/21 02:22:56;;;;;;;0.50;0.50;;;;;;;7.35;49.66;98266.84;4908262;28;20048;-58
2023/04/21 02:25:27;;;;;;;1.88;0.70;;;;;;;7.45;50.95;98258.72;4912776;28;20052;-58
2023/04/21 02:27:57;;;;;;;3.55;0.80;;;;;;;7.60;50.70;98273.78;4924637;28;20053;-59
2023/04/21 02:30:28;;;;;;;1.75;0.73;;;;;;;7.56;50.26;98261.78;4914894;28;20053;-59
2023/04/21 02:32:59;;;;;;;5.32;0.85;;;;;;;7.83;50.46;98248.69;4916995;28;20064;-59
2023/04/21 02:35:29;;;;;;;3.00;0.80;;;;;;;7.92;49.27;98232.75;4917308;28;20135;-56
2023/04/21 02:38:06;;;;;;;1.50;0.80;;;;;;;8.12;48.52;98229.38;4915616;28;20048;-58
2023/04/21 02:40:39;;;;;;;4.35;1.30;;;;;;;8.29;49.77;98241.72;4907242;28;20063;-58
2023/04/21 02:43:11;;;;;;;1.75;1.15;;;;;;;8.34;49.81;98242.41;4918970;28;20044;-59
2023/04/21 02:45:41;;;;;;;1.33;0.68;;;;;;;8.37;47.29;98239.66;4916420;28;20547;-58
2023/04/21 02:48:12;;;;;;;5.40;0.93;;;;;;;8.44;49.47;98235.94;4916550;28;20063;-58
2023/04/21 02:50:44;;;;;;;2.65;0.82;;;;;;;8.54;49.19;98200.81;4918937;28;20044;-58
2023/04/21 02:53:16;;;;;;;1.30;0.60;;;;;;;8.77;47.72;98258.91;4914941;28;20063;-57
2023/04/21 02:55:47;;;;;;;1.77;0.57;;;;;;;8.33;46.60;98248.50;4915983;28;20064;-57
2023/04/21 02:58:17;;;;;;;2.03;0.70;;;;;;;8.28;49.49;98250.44;4923929;28;20057;-58
2023/04/21 03:00:48;;;;;;;5.90;0.82;;;;;;;8.72;48.73;98245.25;4920669;28;20100;-58
2023/04/21 03:03:19;;;;;;;0.68;0.50;;;;;;;8.89;48.94;98250.59;4920470;28;20048;-58
2023/04/21 03:05:49;;;;;;;1.10;0.52;;;;;;;8.61;47.01;98233.50;4920410;28;20537;-57
2023/04/21 03:08:22;;;;;;;1.52;0.60;;;;;;;8.76;47.73;98252.00;4922122;28;20048;-58
2023/04/21 03:10:53;;;;;;;1.58;0.70;;;;;;;8.51;47.12;98174.94;4922144;28;20477;-59
2023/04/21 03:13:23;;;;;;;1.60;0.60;;;;;;;8.98;46.28;98242.38;4919992;28;20470;-57
2023/04/21 03:15:54;;;;;;;1.20;0.40;;;;;;;9.11;47.72;98247.06;4919009;28;20064;-58
2023/04/21 03:18:24;;;;;;;2.95;0.85;;;;;;;9.09;45.84;98259.34;4919427;28;20324;-56
2023/04/21 03:21:01;;;;;;;0.77;0.50;;;;;;;8.68;44.60;98243.66;4903626;28;20048;-60
2023/04/21 03:23:33;;;;;;;1.35;0.50;;;;;;;8.37;44.97;98248.31;4912227;28;20064;-57
2023/04/21 03:26:08;;;;;;;2.58;0.68;;;;;;;8.55;46.69;98257.16;4923257;28;20076;-57
2023/04/21 03:28:38;;;;;;;1.90;0.45;;;;;;;8.75;47.38;98247.72;4896983;28;20424;-57
2023/04/21 03:31:09;;;;;;;1.67;0.52;;;;;;;8.43;45.44;98262.84;4909681;28;20051;-58
2023/04/21 03:33:40;;;;;;;2.85;0.65;;;;;;;8.12;45.54;98260.59;4921480;28;20048;-58
2023/04/21 03:36:11;;;;;;;2.03;0.65;;;;;;;8.24;46.85;98248.84;4921866;28;20069;-58
2023/04/21 03:38:43;;;;;;;2.25;0.77;;;;;;;8.44;46.98;98230.75;4918178;28;20054;-57
2023/04/21 03:41:13;;;;;;;1.60;0.52;;;;;;;8.53;46.19;98258.97;4921012;28;20066;-59
2023/04/21 03:43:44;;;;;;;3.40;0.70;;;;;;;8.48;45.81;98268.72;4918477;28;20052;-55
2023/04/21 03:46:21;;;;;;;0.90;0.55;;;;;;;8.37;45.08;98244.88;4917514;28;20048;-57
2023/04/21 03:48:51;;;;;;;1.77;0.60;;;;;;;8.24;45.92;98259.25;4910287;28;20052;-57
2023/04/21 03:51:22;;;;;;;2.55;0.45;;;;;;;8.34;47.29;98265.81;4919693;28;20512;-56
2023/04/21 03:53:54;;;;;;;1.75;0.57;;;;;;;8.27;46.31;98259.16;4920562;28;20140;-57
2023/04/21 03:56:25;;;;;;;1.13;0.60;;;;;;;8.31;46.30;98265.91;4917580;28;20047;-58
2023/04/21 03:58:56;;;;;;;2.83;0.52;;;;;;;8.36;47.06;98253.56;4919685;28;20322;-57
2023/04/21 04:01:27;;;;;;;1.10;0.57;;;;;;;8.45;45.74;98279.28;4909513;28;20074;-55
2023/04/21 04:03:57;;;;;;;1.40;0.45;;;;;;;8.48;44.75;98281.75;4921258;28;20650;-57
2023/04/21 04:06:28;;;;;;;1.30;0.88;;;;;;;8.37;44.60;98286.50;4931694;28;20399;-58
2023/04/21 04:09:03;;;;;;;1.75;0.50;;;;;;;8.17;44.25;98288.13;4931186;28;20055;-57
2023/04/21 04:11:33;;;;;;;2.25;1.13;;;;;;;7.68;45.15;98282.13;4917893;28;20125;-57
2023/04/21 04:14:04;;;;;;;1.65;0.47;;;;;;;7.85;45.99;98283.28;4926183;28;20087;-55
2023/04/21 04:16:35;;;;;;;0.88;0.50;;;;;;;7.80;45.25;98295.59;4927241;28;20052;-54
2023/04/21 04:19:06;;;;;;;1.42;0.68;;;;;;;7.88;44.25;98294.41;4921585;28;20046;-57
2023/04/21 04:21:36;;;;;;;2.13;0.60;;;;;;;8.09;46.98;98300.56;4929989;28;20059;-57
2023/04/21 04:24:10;;;;;;;0.85;0.68;;;;;;;8.43;44.79;98288.88;4928958;28;20279;-57
2023/04/21 04:26:40;;;;;;;1.40;0.65;;;;;;;8.48;45.18;98281.75;4930143;28;20046;-58
2023/04/21 04:29:12;;;;;;;2.35;0.60;;;;;;;8.26;43.88;98317.28;4930395;28;20347;-56
2023/04/21 04:31:43;;;;;;;0.60;0.50;;;;;;;8.41;43.61;98298.50;4928784;28;20048;-57
2023/04/21 04:34:14;;;;;;;2.55;0.50;;;;;;;8.10;43.65;98291.84;4928060;28;20709;-56
2023/04/21 04:36:45;;;;;;;0.55;0.55;;;;;;;8.09;43.39;98303.19;4929572;28;20055;-56
2023/04/21 04:39:18;;;;;;;1.48;0.40;;;;;;;8.06;43.89;98313.66;4929820;28;20090;-57
2023/04/21 04:41:53;;;;;;;0.73;0.60;;;;;;;7.91;43.95;98306.44;4938161;28;20126;-58
2023/04/21 04:44:27;;;;;;;0.80;0.50;;;;;;;7.94;44.33;98315.00;5004684;28;20083;-59
2023/04/21 04:47:07;;;;;;;1.20;0.45;;;;;;;7.81;44.14;98292.09;5062477;28;20587;-57
2023/04/21 04:49:40;;;;;;;1.42;0.50;;;;;;;8.17;44.82;98319.34;5077493;28;20490;-58
2023/04/21 04:52:11;;;;;;;0.95;0.52;;;;;;;7.90;44.15;98328.16;5080724;28;20040;-58
2023/04/21 04:54:43;;;;;;;1.77;0.40;;;;;;;7.71;44.99;98302.84;5006051;28;20400;-59
2023/04/21 04:57:14;;;;;;;1.70;0.60;;;;;;;7.70;44.01;98349.69;4908888;28;20052;-59
2023/04/21 04:59:45;;;;;;;1.48;0.55;;;;;;;7.58;45.35;98340.56;4909090;28;20059;-58
2023/04/21 05:02:15;;;;;;;1.58;0.50;;;;;;;7.43;45.02;98312.50;4908029;28;20056;-59
2023/04/21 05:04:47;;;;;;;1.60;0.60;;;;;;;7.42;46.50;98348.03;4927983;28;20517;-59
2023/04/21 05:07:17;;;;;;;0.40;0.40;;;;;;;7.45;45.31;98337.53;4932610;28;20045;-58
2023/04/21 05:09:50;;;;;;;0.43;0.43;;;;;;;7.70;44.79;98354.88;4941699;28;20060;-58
2023/04/21 05:12:20;;;;;;;0.82;0.70;;;;;;;7.88;45.24;98361.16;4935035;28;20051;-59
2023/04/21 05:14:51;;;;;;;0.60;0.52;;;;;;;7.88;44.79;98361.16;4935702;28;20067;-59
2023/04/21 05:17:22;;;;;;;1.58;0.60;;;;;;;7.72;44.39;98361.72;4934813;28;20470;-58
2023/04/21 05:19:53;;;;;;;0.43;0.40;;;;;;;7.47;45.37;98384.28;4923244;28;20062;-59
2023/04/21 05:22:23;;;;;;;0.60;0.60;;;;;;;7.46;46.10;98380.81;4934034;28;20052;-58
2023/04/21 05:24:55;;;;;;;0.40;0.40;;;;;;;7.35;45.71;98378.56;4934090;28;20051;-59
2023/04/21 05:27:26;;;;;;;0.43;0.40;;;;;;;7.29;45.22;98383.97;4934724;28;20444;-58
2023/04/21 05:29:56;;;;;;;6.28;0.50;;;;;;;7.01;44.42;98409.13;4934229;28;20043;-59
2023/04/21 05:32:28;;;;;;;0.40;0.40;;;;;;;6.96;45.49;98392.84;4931385;28;20060;-58
2023/04/21 05:34:59;;;;;;;0.40;0.40;;;;;;;7.00;46.17;98407.44;4937029;28;20109;-59
2023/04/21 05:37:30;;;;;;;1.00;0.70;;;;;;;6.68;45.62;98420.50;4935336;28;20047;-58
2023/04/21 05:40:02;;;;;;;1.58;0.40;;;;;;;6.61;45.26;98423.34;4936114;28;20048;-59
2023/04/21 05:42:33;;;;;;;0.40;0.40;;;;;;;6.65;46.33;98417.16;4935329;28;20052;-59
2023/04/21 05:45:04;;;;;;;4.70;0.50;;;;;;;6.75;44.87;98408.19;4935856;28;20082;-58
2023/04/21 05:47:36;;;;;;;1.17;0.40;;;;;;;6.80;45.62;98405.47;4936060;28;20055;-59
2023/04/21 05:50:07;;;;;;;0.85;0.50;;;;;;;6.39;45.28;98348.75;4931293;28;20048;-60
2023/04/21 05:52:38;;;;;;;0.68;0.40;;;;;;;6.82;45.19;98403.69;4924058;28;20063;-59
2023/04/21 05:55:11;;;;;;;1.25;0.60;;;;;;;7.00;44.00;98407.44;4934743;28;20691;-59
2023/04/21 05:57:41;;;;;;;0.65;0.45;;;;;;;7.31;45.45;98408.16;4933507;28;20064;-59
2023/04/21 06:00:13;;;;;;;0.63;0.50;;;;;;;7.60;44.48;98403.72;4934818;28;20044;-59
2023/04/21 06:02:44;;;;;;;4.32;0.65;;;;;;;7.47;43.18;98407.66;4932565;28;20047;-59
2023/04/21 06:05:15;;;;;;;0.60;0.60;;;;;;;7.26;43.94;98407.47;4933483;28;20048;-59
2023/04/21 06:07:45;;;;;;;2.05;0.45;;;;;;;7.47;44.32;98418.06;4934521;28;20386;-59
2023/04/21 06:10:18;;;;;;;0.70;0.50;;;;;;;7.55;43.93;98405.63;4934122;28;20047;-58
2023/04/21 06:12:49;;;;;;;2.65;0.60;;;;;;;7.12;42.98;98407.06;4925431;28;20055;-59
2023/04/21 06:15:20;;;;;;;0.63;0.30;;;;;;;7.12;43.71;98412.25;4934422;28;20049;-59
2023/04/21 06:17:55;;;;;;;0.32;0.32;;;;;;;7.11;43.85;98405.34;4933811;28;20109;-60
2023/04/21 06:20:25;;;;;;;0.40;0.40;;;;;;;7.17;43.24;98389.56;4933384;28;20060;-59
2023/04/21 06:22:56;;;;;;;0.40;0.40;;;;;;;7.13;42.88;98404.41;4920254;28;20145;-58
2023/04/21 06:25:29;;;;;;;1.13;0.63;;;;;;;6.68;45.26;98365.16;4914504;28;22573;-58
2023/04/21 06:27:59;;;;;;;2.38;1.00;;;;;;;7.11;45.23;98407.94;4913627;28;20049;-59
2023/04/21 06:30:30;;;;;;;0.50;0.50;;;;;;;7.15;44.28;98406.97;4914839;28;20048;-59
2023/04/21 06:33:00;;;;;;;0.52;0.50;;;;;;;6.99;44.72;98384.97;4915996;28;20067;-59
2023/04/21 06:35:31;;;;;;;0.90;0.60;;;;;;;7.21;45.48;98401.53;4914181;28;20048;-59
2023/04/21 06:38:01;;;;;;;1.75;0.50;;;;;;;7.23;44.48;98410.16;4912283;28;20048;-59
2023/04/21 06:40:34;;;;;;;0.40;0.40;;;;;;;7.06;44.02;98402.03;4930999;28;20127;-59
2023/04/21 06:43:05;;;;;;;2.15;0.40;;;;;;;6.97;45.01;98402.34;4894161;28;20775;-59
2023/04/21 06:45:36;;;;;;;1.05;0.47;;;;;;;6.80;46.70;98385.56;4917855;28;20075;-59
2023/04/21 06:48:07;;;;;;;4.63;0.65;;;;;;;6.88;47.26;98404.31;4914148;28;20098;-58
2023/04/21 06:50:43;;;;;;;7.28;0.80;;;;;;;6.87;45.62;98402.63;4904852;28;20044;-59
2023/04/21 06:53:13;;;;;;;3.17;0.57;;;;;;;6.64;46.55;98410.25;4914384;28;20070;-58
2023/04/21 06:55:46;;;;;;;2.05;0.50;;;;;;;6.46;46.63;98407.34;4905289;28;20056;-59
2023/04/21 06:58:16;;;;;;;0.55;0.40;;;;;;;6.37;46.62;98417.97;4912262;28;20213;-59
2023/04/21 07:00:50;;;;;;;1.20;0.60;;;;;;;6.30;47.29;98436.38;4905719;28;20056;-58
2023/04/21 07:03:20;;;;;;;0.40;0.40;;;;;;;6.10;46.86;98424.78;4915524;28;20075;-59
2023/04/21 07:05:51;;;;;;;0.40;0.40;;;;;;;5.81;46.51;98451.47;4912824;28;20067;-58
2023/04/21 07:08:22;;;;;;;3.40;0.60;;;;;;;5.55;47.04;98432.25;4915204;28;20064;-59
2023/04/21 07:10:55;;;;;;;0.50;0.50;;;;;;;5.45;47.86;98368.63;4911371;28;20044;-59
2023/04/21 07:13:25;;;;;;;1.10;0.40;;;;;;;5.32;48.05;98440.59;4912020;28;20133;-59
2023/04/21 07:15:56;;;;;;;0.60;0.60;;;;;;;5.33;49.13;98468.19;4910148;28;20048;-59
2023/04/21 07:18:26;;;;;;;0.40;0.40;;;;;;;5.36;48.53;98472.44;4897332;28;20053;-60
2023/04/21 07:20:57;;;;;;;0.80;0.50;;;;;;;5.45;49.86;98471.41;4912552;28;20053;-59
2023/04/21 07:23:27;;;;;;;0.40;0.40;;;;;;;5.35;48.80;98473.34;4947946;28;20056;-58
2023/04/21 07:26:00;;;;;;;0.40;0.40;;;;;;;5.23;49.07;98476.22;4947635;28;20274;-59
2023/04/21 07:28:31;;;;;;;1.95;0.50;;;;;;;5.30;49.69;98494.19;4941122;28;20044;-59
2023/04/21 07:31:01;;;;;;;0.55;0.43;;;;;;;5.26;49.96;98465.78;4942464;28;20047;-57
2023/04/21 07:33:32;;;;;;;1.13;0.40;;;;;;;5.10;50.83;98492.03;4942268;28;20683;-58
2023/04/21 07:36:02;;;;;;;2.75;0.50;;;;;;;5.07;51.23;98486.94;4943208;28;20053;-58
2023/04/21 07:38:33;;;;;;;1.75;0.50;;;;;;;5.02;51.80;98493.97;4942319;28;20040;-59
2023/04/21 07:41:05;;;;;;;1.60;0.40;;;;;;;4.99;51.37;98506.94;4939760;28;20051;-59
2023/04/21 07:43:36;;;;;;;4.47;0.50;;;;;;;4.39;51.37;98398.72;4942628;28;20783;-59
2023/04/21 07:46:07;;;;;;;0.57;0.55;;;;;;;4.88;52.33;98516.69;4942117;28;20071;-58
2023/04/21 07:48:38;;;;;;;2.85;0.50;;;;;;;4.81;52.33;98512.53;4923755;28;20057;-59
2023/04/21 07:51:08;;;;;;;4.30;0.50;;;;;;;4.74;53.00;98512.69;4934287;28;20117;-57
2023/04/21 07:53:39;;;;;;;0.50;0.50;;;;;;;4.80;53.79;98534.13;4927724;28;20090;-58
2023/04/21 07:56:11;;;;;;;0.95;0.55;;;;;;;4.75;53.05;98516.09;4940705;28;20058;-59
2023/04/21 07:58:42;;;;;;;1.05;0.60;;;;;;;4.73;53.75;98529.06;4945939;28;20044;-58
2023/04/21 08:01:13;;;;;;;3.13;0.68;;;;;;;4.61;53.08;98512.94;4944583;28;20058;-59
2023/04/21 08:03:44;;;;;;;0.50;0.50;;;;;;;4.65;53.55;98530.97;4945371;28;20048;-59
2023/04/21 08:06:15;;;;;;;4.70;2.05;;;;;;;4.74;54.53;98541.13;4946270;28;20066;-59
2023/04/21 08:08:46;;;;;;;7.80;3.88;;;;;;;4.78;54.40;98541.91;4941987;28;20471;-58
2023/04/21 08:11:18;;;;;;;1.92;0.63;;;;;;;4.70;55.09;98518.78;4945476;28;20085;-58
2023/04/21 08:13:49;;;;;;;2.08;0.60;;;;;;;4.56;55.07;98510.44;4920985;28;20057;-58
2023/04/21 08:16:19;;;;;;;2.33;0.70;;;;;;;4.69;55.28;98537.78;4930145;28;20062;-59
2023/04/21 08:18:50;;;;;;;0.75;0.60;;;;;;;4.60;56.21;98553.50;4929866;28;20055;-59
2023/04/21 08:21:21;;;;;;;1.20;0.60;;;;;;;4.62;55.99;98556.03;4930288;28;20178;-59
2023/04/21 08:23:51;;;;;;;4.97;0.75;;;;;;;4.60;56.37;98552.66;4926345;28;20064;-59
2023/04/21 08:26:24;;;;;;;3.50;0.85;;;;;;;4.32;56.63;98511.81;4910901;28;20049;-58
2023/04/21 08:28:54;;;;;;;0.85;0.60;;;;;;;4.43;56.32;98551.22;4922460;28;20055;-58
2023/04/21 08:31:25;;;;;;;4.32;0.80;;;;;;;4.19;56.76;98537.00;4924495;28;20052;-58
2023/04/21 08:33:55;;;;;;;2.67;0.80;;;;;;;4.02;57.75;98544.22;4903989;28;20049;-59
2023/04/21 08:36:32;;;;;;;0.50;0.50;;;;;;;3.93;58.77;98562.47;4913572;28;20629;-58
2023/04/21 08:39:02;;;;;;;1.55;0.65;;;;;;;3.93;59.38;98562.47;4904199;28;20622;-59
2023/04/21 08:41:35;;;;;;;1.40;0.63;;;;;;;3.81;58.03;98572.13;4921804;28;20062;-58
2023/04/21 08:44:10;;;;;;;1.80;0.70;;;;;;;3.75;59.40;98572.22;4925566;28;20117;-57
2023/04/21 08:46:41;;;;;;;1.17;0.70;;;;;;;3.57;60.22;98567.34;4912936;28;20052;-59
2023/04/21 08:49:13;;;;;;;3.50;0.70;;;;;;;3.44;60.31;98577.88;4920525;28;20052;-59
2023/04/21 08:51:44;;;;;;;0.60;0.60;;;;;;;3.27;60.65;98564.34;4925439;28;20070;-59
2023/04/21 08:54:15;;;;;;;6.70;0.85;;;;;;;3.17;61.35;98567.91;4925179;28;20143;-58
2023/04/21 08:56:49;;;;;;;0.98;0.90;;;;;;;3.10;62.24;98576.63;4922752;28;20056;-59
2023/04/21 08:59:23;;;;;;;1.50;0.65;;;;;;;2.84;61.61;98544.25;4910674;28;20159;-58
2023/04/21 09:02:11;;;;;;;4.38;0.90;;;;;;;2.88;62.21;98561.41;4922654;28;20506;-59
2023/04/21 09:04:42;;;;;;;5.90;0.85;;;;;;;2.81;61.97;98567.53;4899122;28;20052;-59
2023/04/21 09:07:36;;;;;;;1.08;0.80;;;;;;;2.54;62.90;98546.34;4922023;28;20045;-58
2023/04/21 09:10:16;;;;;;;1.67;0.80;;;;;;;2.66;63.21;98585.75;4903195;28;20131;-58
2023/04/21 09:12:53;;;;;;;1.48;1.20;;;;;;;2.64;62.88;98587.50;4929466;28;20067;-58
2023/04/21 09:15:23;;;;;;;1.02;0.80;;;;;;;2.64;62.78;98582.34;4912767;28;20528;-58
2023/04/21 09:18:00;;;;;;;0.95;0.80;;;;;;;2.38;62.50;98555.97;4922633;28;20074;-58
2023/04/21 09:20:31;;;;;;;1.65;0.90;;;;;;;2.51;62.57;98582.47;4914219;28;20044;-59
2023/04/21 09:23:05;;;;;;;1.20;0.75;;;;;;;2.41;63.51;98596.34;4922806;27;20036;-58
2023/04/21 09:25:39;;;;;;;2.05;0.80;;;;;;;2.39;64.09;98590.34;4909740;28;20060;-58
2023/04/21 09:28:16;;;;;;;1.30;0.90;;;;;;;2.45;63.97;98577.41;4913407;27;20055;-58
2023/04/21 09:30:47;;;;;;;2.10;1.33;;;;;;;2.42;64.25;98561.09;4909112;28;20044;-58
2023/04/21 09:33:23;;;;;;;3.58;1.10;;;;;;;2.53;64.68;98547.22;4919484;28;20056;-58
2023/04/21 09:36:06;;;;;;;5.03;1.10;;;;;;;2.57;64.10;98546.31;4910193;28;20052;-58
2023/04/21 09:38:40;;;;;;;4.35;0.82;;;;;;;2.47;64.41;98555.03;4914355;28;20052;-58
2023/04/21 09:41:20;;;;;;;4.28;1.25;;;;;;;2.43;63.94;98567.97;4923221;28;20051;-58
2023/04/21 09:43:52;;;;;;;1.90;0.80;;;;;;;2.07;63.95;98524.53;4909260;28;20056;-59
2023/04/21 09:46:24;;;;;;;4.82;0.95;;;;;;;2.31;64.11;98579.25;4901934;28;20052;-58
2023/04/21 09:48:57;;;;;;;4.40;0.90;;;;;;;2.33;63.99;98573.22;4923698;28;20109;-59
2023/04/21 09:51:28;;;;;;;6.90;0.95;;;;;;;2.33;64.78;98552.59;4917955;27;20053;-58
2023/04/21 09:54:20;;;;;;;2.88;0.80;;;;;;;2.32;63.93;98555.19;4912080;28;20045;-58
2023/04/21 09:56:56;;;;;;;2.58;0.70;;;;;;;1.99;64.26;98531.47;4923854;28;20048;-59
2023/04/21 09:59:33;;;;;;;2.08;0.70;;;;;;;2.00;64.86;98584.72;4922467;28;20059;-57
2023/04/21 10:02:06;;;;;;;0.90;0.90;;;;;;;2.07;65.02;98588.06;4919517;28;20051;-58
2023/04/21 10:04:42;;;;;;;1.58;0.80;;;;;;;2.09;64.98;98600.06;4918621;28;20517;-58
2023/04/21 10:07:16;;;;;;;2.42;0.70;;;;;;;2.10;65.40;98596.66;4923319;28;20040;-58
2023/04/21 10:10:00;;;;;;;0.93;0.63;;;;;;;2.02;64.26;98597.56;4913085;28;20045;-58
2023/04/21 10:12:35;;;;;;;1.35;0.75;;;;;;;2.07;65.05;98596.69;4910154;28;20450;-58
2023/04/21 10:15:28;;;;;;;1.13;0.80;;;;;;;2.06;64.79;98605.25;4927230;28;20478;-59
2023/04/21 10:18:18;;;;;;;0.50;0.50;;;;;;;1.66;65.33;98574.69;4904820;28;20053;-59
2023/04/21 10:20:53;;;;;;;0.90;0.70;;;;;;;1.88;65.99;98615.72;4919699;27;20048;-58
2023/04/21 10:23:32;;;;;;;1.92;0.68;;;;;;;1.77;65.31;98620.09;4919877;28;20108;-58
2023/04/21 10:26:11;;;;;;;0.98;0.68;;;;;;;1.78;66.08;98619.25;4912165;28;20055;-57
2023/04/21 10:28:47;;;;;;;1.10;0.70;;;;;;;1.82;66.02;98615.75;4907965;28;20044;-58
2023/04/21 10:31:29;;;;;;;1.20;0.65;;;;;;;1.57;66.88;98595.31;4909737;28;20049;-57
2023/04/21 10:34:21;;;;;;;0.55;0.50;;;;;;;1.71;66.33;98624.41;4911901;28;20055;-58
2023/04/21 10:37:21;;;;;;;1.35;0.70;;;;;;;1.69;67.03;98626.13;4896483;28;20158;-59
2023/04/21 10:40:07;;;;;;;1.27;0.70;;;;;;;1.66;67.38;98630.47;4908823;28;20052;-58
2023/04/21 10:42:38;;;;;;;1.38;0.60;;;;;;;1.60;67.61;98623.66;4903012;28;20137;-58
2023/04/21 10:45:13;;;;;;;0.50;0.50;;;;;;;1.52;67.80;98622.81;4924860;28;20065;-58
2023/04/21 10:47:50;;;;;;;0.75;0.65;;;;;;;1.56;67.52;98614.22;4917660;28;20037;-58
2023/04/21 10:50:26;;;;;;;1.33;0.80;;;;;;;1.53;67.83;98631.44;4917058;28;20097;-57
2023/04/21 10:53:09;;;;;;;0.75;0.60;;;;;;;1.56;68.20;98632.25;4900414;28;20779;-57
2023/04/21 10:55:42;;;;;;;0.70;0.57;;;;;;;1.07;67.33;98561.34;4879941;28;20109;-58
2023/04/21 10:58:16;;;;;;;2.75;0.88;;;;;;;1.56;68.21;98624.53;4919798;28;20052;-59
2023/04/21 11:00:46;;;;;;;0.60;0.60;;;;;;;1.62;67.60;98629.66;4921022;28;20054;-58
2023/04/21 11:03:19;;;;;;;0.70;0.60;;;;;;;1.61;68.34;98633.06;4918710;28;20113;-58
2023/04/21 11:05:49;;;;;;;0.60;0.60;;;;;;;1.54;68.58;98636.53;4921132;28;20136;-58
2023/04/21 11:08:20;;;;;;;0.63;0.57;;;;;;;1.62;68.25;98639.94;4913968;28;20071;-58
2023/04/21 11:10:56;;;;;;;0.70;0.70;;;;;;;1.63;68.51;98640.78;4920406;28;20135;-57
2023/04/21 11:13:39;;;;;;;0.88;0.70;;;;;;;1.62;68.19;98639.94;4921145;28;20059;-58
2023/04/21 11:16:09;;;;;;;0.73;0.50;;;;;;;1.63;67.99;98640.78;4909647;28;20041;-58
2023/04/21 11:18:48;;;;;;;0.75;0.60;;;;;;;1.64;68.27;98661.38;4917731;28;20068;-58
2023/04/21 11:21:20;;;;;;;1.05;0.60;;;;;;;1.55;68.71;98648.56;4894044;28;20060;-58
2023/04/21 11:23:53;;;;;;;1.75;0.70;;;;;;;1.61;68.76;98653.66;4901633;28;20072;-57
2023/04/21 11:26:34;;;;;;;0.50;0.50;;;;;;;1.58;68.61;98658.84;4923776;28;20048;-58
2023/04/21 11:29:07;;;;;;;0.98;0.70;;;;;;;1.66;68.50;98672.50;4915316;28;20044;-57
2023/04/21 11:31:39;;;;;;;2.47;1.23;;;;;;;1.61;68.88;98643.38;4910183;28;20153;-58
2023/04/21 11:34:11;;;;;;;0.98;0.70;;;;;;;1.71;68.70;98655.31;4924055;28;20076;-59
2023/04/21 11:36:43;;;;;;;1.83;1.00;;;;;;;1.66;68.96;98657.06;4922682;28;20058;-58
2023/04/21 11:39:18;;;;;;;1.10;0.93;;;;;;;1.66;68.81;98651.91;4918764;28;20075;-58
2023/04/21 11:41:52;;;;;;;2.38;1.08;;;;;;;1.58;69.86;98658.84;4907559;28;20052;-58
2023/04/21 11:44:35;;;;;;;0.90;0.70;;;;;;;1.69;69.96;98672.50;4916881;28;20808;-58
2023/04/21 11:47:19;;;;;;;0.52;0.52;;;;;;;1.68;69.50;98660.50;4914620;28;20044;-57
2023/04/21 11:49:55;;;;;;;4.88;1.20;;;;;;;1.62;69.80;98665.69;4895929;28;20062;-58
2023/04/21 11:52:27;;;;;;;1.40;0.73;;;;;;;1.60;69.60;98667.41;4932224;28;20040;-58
2023/04/21 11:55:01;;;;;;;0.80;0.63;;;;;;;1.61;70.09;98663.97;4913374;27;20485;-58
2023/04/21 11:57:33;;;;;;;0.65;0.60;;;;;;;1.43;69.98;98638.34;4920693;28;20055;-57
2023/04/21 12:00:06;;;;;;;1.00;0.70;;;;;;;1.56;70.01;98658.00;4915673;28;20094;-57
2023/04/21 12:02:38;;;;;;;3.60;0.60;;;;;;;1.64;69.93;98663.94;4922510;28;20436;-56
2023/04/21 12:05:15;;;;;;;1.08;0.50;;;;;;;1.60;69.96;98654.53;4923842;28;20055;-58
2023/04/21 12:07:47;;;;;;;0.52;0.52;;;;;;;1.38;70.70;98637.50;4924952;28;20419;-58